sensor_id;sensor_type;location;lat;lon;timestamp;P1;durP1;ratioP1;P2;durP2;ratioP2
21546;SDS011;41275;51.912;4.388;2023-01-19T00:03:41;4.07;;;1.17;;
21546;SDS011;41275;51.912;4.388;2023-01-19T00:09:02;4.85;;;1.55;;
21546;SDS011;41275;51.912;4.388;2023-01-19T00:14:24;7.43;;;1.20;;
21546;SDS011;41275;51.912;4.388;2023-01-19T00:19:45;3.40;;;0.60;;
21546;SDS011;41275;51.912;4.388;2023-01-19T00:25:06;1.50;;;0.30;;
21546;SDS011;41275;51.912;4.388;2023-01-19T00:30:28;3.85;;;0.40;;
21546;SDS011;41275;51.912;4.388;2023-01-19T00:35:50;2.70;;;0.33;;
21546;SDS011;41275;51.912;4.388;2023-01-19T00:41:12;2.53;;;0.47;;
21546;SDS011;41275;51.912;4.388;2023-01-19T00:46:33;2.57;;;0.53;;
21546;SDS011;41275;51.912;4.388;2023-01-19T00:51:54;6.35;;;0.80;;
21546;SDS011;41275;51.912;4.388;2023-01-19T00:57:16;3.95;;;0.65;;
21546;SDS011;41275;51.912;4.388;2023-01-19T01:02:39;2.65;;;0.65;;
21546;SDS011;41275;51.912;4.388;2023-01-19T01:08:01;4.43;;;0.73;;
21546;SDS011;41275;51.912;4.388;2023-01-19T01:13:23;6.32;;;0.50;;
21546;SDS011;41275;51.912;4.388;2023-01-19T01:18:44;9.10;;;1.07;;
21546;SDS011;41275;51.912;4.388;2023-01-19T01:24:05;6.90;;;0.82;;
21546;SDS011;41275;51.912;4.388;2023-01-19T01:29:27;6.63;;;0.85;;
21546;SDS011;41275;51.912;4.388;2023-01-19T01:34:48;4.82;;;0.57;;
21546;SDS011;41275;51.912;4.388;2023-01-19T01:40:11;3.65;;;0.60;;
21546;SDS011;41275;51.912;4.388;2023-01-19T01:45:35;4.25;;;0.70;;
21546;SDS011;41275;51.912;4.388;2023-01-19T01:51:01;3.00;;;0.40;;
21546;SDS011;41275;51.912;4.388;2023-01-19T01:56:45;3.73;;;0.40;;
21546;SDS011;41275;51.912;4.388;2023-01-19T02:02:10;4.97;;;0.80;;
21546;SDS011;41275;51.912;4.388;2023-01-19T02:07:56;6.07;;;0.70;;
21546;SDS011;41275;51.912;4.388;2023-01-19T02:13:41;4.38;;;0.68;;
21546;SDS011;41275;51.912;4.388;2023-01-19T02:19:07;5.32;;;0.90;;
21546;SDS011;41275;51.912;4.388;2023-01-19T02:24:32;4.30;;;0.50;;
21546;SDS011;41275;51.912;4.388;2023-01-19T02:29:53;3.23;;;0.50;;
21546;SDS011;41275;51.912;4.388;2023-01-19T02:35:15;2.55;;;0.40;;
21546;SDS011;41275;51.912;4.388;2023-01-19T02:40:36;5.27;;;0.70;;
21546;SDS011;41275;51.912;4.388;2023-01-19T02:46:00;3.65;;;0.57;;
21546;SDS011;41275;51.912;4.388;2023-01-19T02:51:22;1.20;;;0.23;;
21546;SDS011;41275;51.912;4.388;2023-01-19T02:56:49;3.92;;;0.70;;
21546;SDS011;41275;51.912;4.388;2023-01-19T03:13:53;4.90;;;0.60;;
21546;SDS011;41275;51.912;4.388;2023-01-19T03:19:30;2.65;;;0.77;;
21546;SDS011;41275;51.912;4.388;2023-01-19T03:24:59;13.70;;;1.60;;
21546;SDS011;41275;51.912;4.388;2023-01-19T03:30:23;10.85;;;1.40;;
21546;SDS011;41275;51.912;4.388;2023-01-19T03:35:49;4.83;;;0.90;;
21546;SDS011;41275;51.912;4.388;2023-01-19T03:41:16;8.97;;;1.10;;
21546;SDS011;41275;51.912;4.388;2023-01-19T03:46:42;9.02;;;1.25;;
21546;SDS011;41275;51.912;4.388;2023-01-19T03:52:05;11.53;;;1.60;;
21546;SDS011;41275;51.912;4.388;2023-01-19T03:57:26;9.45;;;1.52;;
21546;SDS011;41275;51.912;4.388;2023-01-19T04:02:48;9.82;;;1.60;;
21546;SDS011;41275;51.912;4.388;2023-01-19T04:08:09;11.30;;;2.10;;
21546;SDS011;41275;51.912;4.388;2023-01-19T04:13:31;11.68;;;2.38;;
21546;SDS011;41275;51.912;4.388;2023-01-19T04:18:52;19.30;;;2.40;;
21546;SDS011;41275;51.912;4.388;2023-01-19T04:24:14;11.30;;;2.07;;
21546;SDS011;41275;51.912;4.388;2023-01-19T04:29:35;13.50;;;1.87;;
21546;SDS011;41275;51.912;4.388;2023-01-19T04:34:56;12.27;;;2.05;;
21546;SDS011;41275;51.912;4.388;2023-01-19T04:40:18;11.05;;;1.67;;
21546;SDS011;41275;51.912;4.388;2023-01-19T04:45:39;13.97;;;2.43;;
21546;SDS011;41275;51.912;4.388;2023-01-19T04:51:06;16.65;;;2.10;;
21546;SDS011;41275;51.912;4.388;2023-01-19T04:56:28;15.87;;;2.10;;
21546;SDS011;41275;51.912;4.388;2023-01-19T05:01:49;16.87;;;2.10;;
21546;SDS011;41275;51.912;4.388;2023-01-19T05:07:10;18.42;;;2.22;;
21546;SDS011;41275;51.912;4.388;2023-01-19T05:12:32;15.02;;;2.60;;
21546;SDS011;41275;51.912;4.388;2023-01-19T05:17:53;15.70;;;2.30;;
21546;SDS011;41275;51.912;4.388;2023-01-19T05:23:15;16.27;;;2.17;;
21546;SDS011;41275;51.912;4.388;2023-01-19T05:28:36;11.88;;;1.92;;
21546;SDS011;41275;51.912;4.388;2023-01-19T05:33:57;9.03;;;1.70;;
21546;SDS011;41275;51.912;4.388;2023-01-19T05:39:19;11.73;;;2.03;;
21546;SDS011;41275;51.912;4.388;2023-01-19T05:44:40;13.55;;;2.42;;
21546;SDS011;41275;51.912;4.388;2023-01-19T05:51:03;13.88;;;2.00;;
21546;SDS011;41275;51.912;4.388;2023-01-19T05:56:25;15.10;;;2.30;;
21546;SDS011;41275;51.912;4.388;2023-01-19T06:01:46;11.97;;;2.00;;
21546;SDS011;41275;51.912;4.388;2023-01-19T06:07:07;12.95;;;2.10;;
21546;SDS011;41275;51.912;4.388;2023-01-19T06:12:28;17.17;;;2.08;;
21546;SDS011;41275;51.912;4.388;2023-01-19T06:17:49;12.07;;;2.30;;
21546;SDS011;41275;51.912;4.388;2023-01-19T06:23:11;17.90;;;2.30;;
21546;SDS011;41275;51.912;4.388;2023-01-19T06:28:32;15.97;;;1.90;;
21546;SDS011;41275;51.912;4.388;2023-01-19T06:33:53;17.90;;;2.17;;
21546;SDS011;41275;51.912;4.388;2023-01-19T06:39:14;19.88;;;2.15;;
21546;SDS011;41275;51.912;4.388;2023-01-19T06:44:35;7.90;;;1.73;;
21546;SDS011;41275;51.912;4.388;2023-01-19T06:49:57;14.23;;;2.15;;
21546;SDS011;41275;51.912;4.388;2023-01-19T06:55:18;12.73;;;1.90;;
21546;SDS011;41275;51.912;4.388;2023-01-19T07:00:39;10.73;;;2.17;;
21546;SDS011;41275;51.912;4.388;2023-01-19T07:06:01;9.73;;;1.85;;
21546;SDS011;41275;51.912;4.388;2023-01-19T07:11:22;15.73;;;2.33;;
21546;SDS011;41275;51.912;4.388;2023-01-19T07:16:43;17.05;;;2.15;;
21546;SDS011;41275;51.912;4.388;2023-01-19T07:22:04;14.87;;;2.60;;
21546;SDS011;41275;51.912;4.388;2023-01-19T07:27:25;15.00;;;2.20;;
21546;SDS011;41275;51.912;4.388;2023-01-19T07:32:47;12.47;;;2.17;;
21546;SDS011;41275;51.912;4.388;2023-01-19T07:38:08;10.50;;;1.53;;
21546;SDS011;41275;51.912;4.388;2023-01-19T07:43:31;12.07;;;1.60;;
21546;SDS011;41275;51.912;4.388;2023-01-19T07:48:54;8.97;;;1.70;;
21546;SDS011;41275;51.912;4.388;2023-01-19T07:54:15;16.75;;;1.80;;
21546;SDS011;41275;51.912;4.388;2023-01-19T07:59:37;12.02;;;1.90;;
21546;SDS011;41275;51.912;4.388;2023-01-19T08:04:58;13.25;;;2.00;;
21546;SDS011;41275;51.912;4.388;2023-01-19T08:10:19;9.57;;;2.28;;
21546;SDS011;41275;51.912;4.388;2023-01-19T08:15:42;6.32;;;1.60;;
21546;SDS011;41275;51.912;4.388;2023-01-19T08:21:04;11.23;;;1.67;;
21546;SDS011;41275;51.912;4.388;2023-01-19T08:26:26;7.15;;;1.13;;
21546;SDS011;41275;51.912;4.388;2023-01-19T08:31:49;9.93;;;1.67;;
21546;SDS011;41275;51.912;4.388;2023-01-19T08:37:10;9.07;;;1.63;;
21546;SDS011;41275;51.912;4.388;2023-01-19T08:42:32;8.77;;;1.50;;
21546;SDS011;41275;51.912;4.388;2023-01-19T08:47:54;11.17;;;1.60;;
21546;SDS011;41275;51.912;4.388;2023-01-19T08:53:17;9.63;;;1.70;;
21546;SDS011;41275;51.912;4.388;2023-01-19T08:58:41;6.33;;;1.30;;
21546;SDS011;41275;51.912;4.388;2023-01-19T09:04:04;9.43;;;1.77;;
21546;SDS011;41275;51.912;4.388;2023-01-19T09:09:25;5.32;;;1.10;;
21546;SDS011;41275;51.912;4.388;2023-01-19T09:14:46;5.83;;;0.90;;
21546;SDS011;41275;51.912;4.388;2023-01-19T09:20:08;7.47;;;1.30;;
21546;SDS011;41275;51.912;4.388;2023-01-19T09:25:29;6.47;;;1.10;;
21546;SDS011;41275;51.912;4.388;2023-01-19T09:30:51;7.27;;;1.27;;
21546;SDS011;41275;51.912;4.388;2023-01-19T09:36:12;8.10;;;0.90;;
21546;SDS011;41275;51.912;4.388;2023-01-19T09:41:34;4.93;;;1.00;;
21546;SDS011;41275;51.912;4.388;2023-01-19T09:46:56;3.95;;;0.70;;
21546;SDS011;41275;51.912;4.388;2023-01-19T09:52:17;6.00;;;0.80;;
21546;SDS011;41275;51.912;4.388;2023-01-19T09:57:40;5.67;;;0.83;;
21546;SDS011;41275;51.912;4.388;2023-01-19T10:03:06;3.03;;;0.70;;
21546;SDS011;41275;51.912;4.388;2023-01-19T10:14:25;5.55;;;0.90;;
21546;SDS011;41275;51.912;4.388;2023-01-19T10:19:54;2.88;;;0.80;;
21546;SDS011;41275;51.912;4.388;2023-01-19T10:25:19;3.97;;;0.60;;
21546;SDS011;41275;51.912;4.388;2023-01-19T10:30:43;3.97;;;0.60;;
21546;SDS011;41275;51.912;4.388;2023-01-19T10:36:17;4.20;;;0.60;;
21546;SDS011;41275;51.912;4.388;2023-01-19T10:41:50;3.00;;;0.65;;
21546;SDS011;41275;51.912;4.388;2023-01-19T10:47:20;5.07;;;0.80;;
21546;SDS011;41275;51.912;4.388;2023-01-19T10:52:52;4.45;;;0.63;;
21546;SDS011;41275;51.912;4.388;2023-01-19T10:58:28;5.37;;;1.00;;
21546;SDS011;41275;51.912;4.388;2023-01-19T11:03:51;3.28;;;0.52;;
21546;SDS011;41275;51.912;4.388;2023-01-19T11:09:17;3.60;;;0.57;;
21546;SDS011;41275;51.912;4.388;2023-01-19T11:14:40;5.07;;;1.00;;
21546;SDS011;41275;51.912;4.388;2023-01-19T11:20:01;2.97;;;0.90;;
21546;SDS011;41275;51.912;4.388;2023-01-19T11:25:27;4.30;;;0.70;;
21546;SDS011;41275;51.912;4.388;2023-01-19T11:36:24;3.97;;;0.73;;
21546;SDS011;41275;51.912;4.388;2023-01-19T11:41:51;3.30;;;0.63;;
21546;SDS011;41275;51.912;4.388;2023-01-19T11:47:26;3.50;;;0.73;;
21546;SDS011;41275;51.912;4.388;2023-01-19T11:52:58;4.00;;;0.60;;
21546;SDS011;41275;51.912;4.388;2023-01-19T11:58:39;4.73;;;0.80;;
21546;SDS011;41275;51.912;4.388;2023-01-19T12:04:07;2.92;;;0.60;;
21546;SDS011;41275;51.912;4.388;2023-01-19T12:09:41;3.93;;;0.90;;
21546;SDS011;41275;51.912;4.388;2023-01-19T12:20:54;6.43;;;0.87;;
21546;SDS011;41275;51.912;4.388;2023-01-19T12:37:39;3.10;;;0.90;;
21546;SDS011;41275;51.912;4.388;2023-01-19T12:43:04;4.13;;;0.70;;
21546;SDS011;41275;51.912;4.388;2023-01-19T12:48:26;5.80;;;0.90;;
21546;SDS011;41275;51.912;4.388;2023-01-19T12:53:51;5.43;;;1.10;;
21546;SDS011;41275;51.912;4.388;2023-01-19T12:59:22;3.60;;;0.90;;
21546;SDS011;41275;51.912;4.388;2023-01-19T13:21:57;2.65;;;0.60;;
21546;SDS011;41275;51.912;4.388;2023-01-19T13:27:18;4.30;;;0.97;;
21546;SDS011;41275;51.912;4.388;2023-01-19T13:32:39;3.97;;;0.77;;
21546;SDS011;41275;51.912;4.388;2023-01-19T13:38:02;6.15;;;1.05;;
21546;SDS011;41275;51.912;4.388;2023-01-19T13:43:26;5.50;;;0.70;;
21546;SDS011;41275;51.912;4.388;2023-01-19T13:49:15;4.40;;;0.90;;
21546;SDS011;41275;51.912;4.388;2023-01-19T13:54:33;2.08;;;0.63;;
21546;SDS011;41275;51.912;4.388;2023-01-19T14:00:02;3.33;;;0.57;;
21546;SDS011;41275;51.912;4.388;2023-01-19T14:05:32;2.63;;;0.68;;
21546;SDS011;41275;51.912;4.388;2023-01-19T14:16:21;6.37;;;1.00;;
21546;SDS011;41275;51.912;4.388;2023-01-19T14:21:43;2.90;;;0.90;;
21546;SDS011;41275;51.912;4.388;2023-01-19T14:27:21;6.05;;;1.02;;
21546;SDS011;41275;51.912;4.388;2023-01-19T14:32:44;5.00;;;0.80;;
21546;SDS011;41275;51.912;4.388;2023-01-19T14:38:09;3.80;;;0.80;;
21546;SDS011;41275;51.912;4.388;2023-01-19T14:43:33;5.85;;;1.58;;
21546;SDS011;41275;51.912;4.388;2023-01-19T14:48:59;4.32;;;1.00;;
21546;SDS011;41275;51.912;4.388;2023-01-19T14:54:27;2.58;;;0.95;;
21546;SDS011;41275;51.912;4.388;2023-01-19T14:59:51;2.58;;;0.77;;
21546;SDS011;41275;51.912;4.388;2023-01-19T15:05:12;3.72;;;0.85;;
21546;SDS011;41275;51.912;4.388;2023-01-19T15:10:34;3.17;;;0.80;;
21546;SDS011;41275;51.912;4.388;2023-01-19T15:15:56;4.20;;;0.90;;
21546;SDS011;41275;51.912;4.388;2023-01-19T15:21:18;4.00;;;1.10;;
21546;SDS011;41275;51.912;4.388;2023-01-19T15:26:43;5.38;;;0.80;;
21546;SDS011;41275;51.912;4.388;2023-01-19T15:32:05;5.47;;;1.20;;
21546;SDS011;41275;51.912;4.388;2023-01-19T15:37:31;5.82;;;1.52;;
21546;SDS011;41275;51.912;4.388;2023-01-19T15:42:52;4.72;;;1.10;;
21546;SDS011;41275;51.912;4.388;2023-01-19T15:48:13;7.10;;;1.50;;
21546;SDS011;41275;51.912;4.388;2023-01-19T15:53:35;4.43;;;1.40;;
21546;SDS011;41275;51.912;4.388;2023-01-19T15:58:57;6.03;;;1.70;;
21546;SDS011;41275;51.912;4.388;2023-01-19T16:04:18;5.30;;;1.60;;
21546;SDS011;41275;51.912;4.388;2023-01-19T16:09:40;7.22;;;1.60;;
21546;SDS011;41275;51.912;4.388;2023-01-19T16:15:01;5.00;;;1.60;;
21546;SDS011;41275;51.912;4.388;2023-01-19T16:20:22;6.70;;;1.33;;
21546;SDS011;41275;51.912;4.388;2023-01-19T16:25:43;3.50;;;1.20;;
21546;SDS011;41275;51.912;4.388;2023-01-19T16:31:14;5.05;;;1.48;;
21546;SDS011;41275;51.912;4.388;2023-01-19T16:36:37;2.53;;;0.70;;
21546;SDS011;41275;51.912;4.388;2023-01-19T16:42:00;3.40;;;0.87;;
21546;SDS011;41275;51.912;4.388;2023-01-19T16:47:21;3.23;;;0.87;;
21546;SDS011;41275;51.912;4.388;2023-01-19T16:52:42;4.55;;;2.72;;
21546;SDS011;41275;51.912;4.388;2023-01-19T16:58:03;6.53;;;3.40;;
21546;SDS011;41275;51.912;4.388;2023-01-19T17:03:25;4.40;;;1.20;;
21546;SDS011;41275;51.912;4.388;2023-01-19T17:08:47;3.53;;;1.00;;
21546;SDS011;41275;51.912;4.388;2023-01-19T17:14:12;3.10;;;1.15;;
21546;SDS011;41275;51.912;4.388;2023-01-19T17:19:35;2.22;;;0.80;;
21546;SDS011;41275;51.912;4.388;2023-01-19T17:24:57;3.50;;;1.50;;
21546;SDS011;41275;51.912;4.388;2023-01-19T17:30:18;5.43;;;1.55;;
21546;SDS011;41275;51.912;4.388;2023-01-19T17:35:40;4.70;;;1.92;;
21546;SDS011;41275;51.912;4.388;2023-01-19T17:41:01;1.97;;;1.30;;
21546;SDS011;41275;51.912;4.388;2023-01-19T17:46:34;2.78;;;1.23;;
21546;SDS011;41275;51.912;4.388;2023-01-19T17:51:57;2.63;;;1.27;;
21546;SDS011;41275;51.912;4.388;2023-01-19T17:57:18;1.80;;;0.90;;
21546;SDS011;41275;51.912;4.388;2023-01-19T18:02:39;3.00;;;0.80;;
21546;SDS011;41275;51.912;4.388;2023-01-19T18:08:00;6.13;;;1.30;;
21546;SDS011;41275;51.912;4.388;2023-01-19T18:13:22;7.00;;;2.00;;
21546;SDS011;41275;51.912;4.388;2023-01-19T18:18:44;4.37;;;1.93;;
21546;SDS011;41275;51.912;4.388;2023-01-19T18:24:05;3.70;;;1.30;;
21546;SDS011;41275;51.912;4.388;2023-01-19T18:29:26;4.10;;;1.15;;
21546;SDS011;41275;51.912;4.388;2023-01-19T18:34:48;2.00;;;0.90;;
21546;SDS011;41275;51.912;4.388;2023-01-19T18:40:11;5.18;;;1.08;;
21546;SDS011;41275;51.912;4.388;2023-01-19T18:45:32;5.67;;;1.30;;
21546;SDS011;41275;51.912;4.388;2023-01-19T18:50:53;5.53;;;1.30;;
21546;SDS011;41275;51.912;4.388;2023-01-19T18:56:15;4.63;;;1.60;;
21546;SDS011;41275;51.912;4.388;2023-01-19T19:01:39;5.78;;;2.03;;
21546;SDS011;41275;51.912;4.388;2023-01-19T19:07:00;2.40;;;1.00;;
21546;SDS011;41275;51.912;4.388;2023-01-19T19:12:21;4.60;;;1.13;;
21546;SDS011;41275;51.912;4.388;2023-01-19T19:17:42;3.70;;;1.23;;
21546;SDS011;41275;51.912;4.388;2023-01-19T19:23:03;4.97;;;1.50;;
21546;SDS011;41275;51.912;4.388;2023-01-19T19:28:25;7.35;;;3.03;;
21546;SDS011;41275;51.912;4.388;2023-01-19T19:33:46;4.20;;;1.93;;
21546;SDS011;41275;51.912;4.388;2023-01-19T19:39:08;5.65;;;1.52;;
21546;SDS011;41275;51.912;4.388;2023-01-19T19:44:30;7.88;;;2.17;;
21546;SDS011;41275;51.912;4.388;2023-01-19T19:49:51;10.00;;;3.57;;
21546;SDS011;41275;51.912;4.388;2023-01-19T19:55:14;8.00;;;3.83;;
21546;SDS011;41275;51.912;4.388;2023-01-19T20:00:35;12.43;;;5.50;;
21546;SDS011;41275;51.912;4.388;2023-01-19T20:06:03;8.00;;;3.97;;
21546;SDS011;41275;51.912;4.388;2023-01-19T20:11:26;8.40;;;3.50;;
21546;SDS011;41275;51.912;4.388;2023-01-19T20:16:48;7.60;;;3.20;;
21546;SDS011;41275;51.912;4.388;2023-01-19T20:22:09;8.20;;;3.90;;
21546;SDS011;41275;51.912;4.388;2023-01-19T20:27:30;5.55;;;3.05;;
21546;SDS011;41275;51.912;4.388;2023-01-19T20:32:51;7.38;;;3.55;;
21546;SDS011;41275;51.912;4.388;2023-01-19T20:38:13;8.00;;;3.30;;
21546;SDS011;41275;51.912;4.388;2023-01-19T20:43:34;5.88;;;2.42;;
21546;SDS011;41275;51.912;4.388;2023-01-19T20:48:55;6.80;;;2.83;;
21546;SDS011;41275;51.912;4.388;2023-01-19T20:54:17;3.70;;;1.67;;
21546;SDS011;41275;51.912;4.388;2023-01-19T20:59:39;2.63;;;1.10;;
21546;SDS011;41275;51.912;4.388;2023-01-19T21:05:01;6.57;;;2.47;;
21546;SDS011;41275;51.912;4.388;2023-01-19T21:10:22;4.75;;;2.10;;
21546;SDS011;41275;51.912;4.388;2023-01-19T21:15:43;3.10;;;1.60;;
21546;SDS011;41275;51.912;4.388;2023-01-19T21:21:04;7.10;;;2.97;;
21546;SDS011;41275;51.912;4.388;2023-01-19T21:26:26;15.57;;;5.80;;
21546;SDS011;41275;51.912;4.388;2023-01-19T21:31:49;4.07;;;1.08;;
21546;SDS011;41275;51.912;4.388;2023-01-19T21:37:11;7.17;;;2.93;;
21546;SDS011;41275;51.912;4.388;2023-01-19T21:42:32;2.92;;;1.30;;
21546;SDS011;41275;51.912;4.388;2023-01-19T21:47:53;4.75;;;1.23;;
21546;SDS011;41275;51.912;4.388;2023-01-19T21:53:14;3.63;;;1.40;;
21546;SDS011;41275;51.912;4.388;2023-01-19T21:58:35;2.45;;;0.93;;
21546;SDS011;41275;51.912;4.388;2023-01-19T22:03:57;4.73;;;1.20;;
21546;SDS011;41275;51.912;4.388;2023-01-19T22:09:19;1.80;;;0.80;;
21546;SDS011;41275;51.912;4.388;2023-01-19T22:14:40;3.85;;;1.33;;
21546;SDS011;41275;51.912;4.388;2023-01-19T22:20:02;1.88;;;0.80;;
21546;SDS011;41275;51.912;4.388;2023-01-19T22:25:23;2.75;;;1.13;;
21546;SDS011;41275;51.912;4.388;2023-01-19T22:30:47;3.05;;;1.40;;
21546;SDS011;41275;51.912;4.388;2023-01-19T22:41:44;5.03;;;3.13;;
21546;SDS011;41275;51.912;4.388;2023-01-19T22:47:06;7.30;;;4.38;;
21546;SDS011;41275;51.912;4.388;2023-01-19T22:52:27;9.15;;;5.55;;
21546;SDS011;41275;51.912;4.388;2023-01-19T22:57:48;12.77;;;6.50;;
21546;SDS011;41275;51.912;4.388;2023-01-19T23:03:09;14.45;;;8.20;;
21546;SDS011;41275;51.912;4.388;2023-01-19T23:08:31;12.95;;;7.63;;
21546;SDS011;41275;51.912;4.388;2023-01-19T23:13:52;14.85;;;8.35;;
21546;SDS011;41275;51.912;4.388;2023-01-19T23:19:13;17.83;;;10.43;;
21546;SDS011;41275;51.912;4.388;2023-01-19T23:24:36;17.77;;;10.60;;
21546;SDS011;41275;51.912;4.388;2023-01-19T23:29:58;24.15;;;11.60;;
21546;SDS011;41275;51.912;4.388;2023-01-19T23:35:19;22.38;;;12.07;;
21546;SDS011;41275;51.912;4.388;2023-01-19T23:40:40;26.48;;;13.25;;
21546;SDS011;41275;51.912;4.388;2023-01-19T23:46:05;23.90;;;13.10;;
21546;SDS011;41275;51.912;4.388;2023-01-19T23:51:29;25.98;;;13.27;;
21546;SDS011;41275;51.912;4.388;2023-01-19T23:56:51;30.02;;;14.40;;
